sensor_id;sensor_type;location;lat;lon;timestamp;P1;durP1;ratioP1;P2;durP2;ratioP2
19189;SDS011;9727;50.200;19.038;2023-10-09T00:00:56;10.57;;;4.83;;
19189;SDS011;9727;50.200;19.038;2023-10-09T00:03:28;10.43;;;5.03;;
19189;SDS011;9727;50.200;19.038;2023-10-09T00:05:55;12.50;;;4.63;;
19189;SDS011;9727;50.200;19.038;2023-10-09T00:08:22;13.40;;;4.43;;
19189;SDS011;9727;50.200;19.038;2023-10-09T00:10:55;12.33;;;5.07;;
19189;SDS011;9727;50.200;19.038;2023-10-09T00:13:23;9.97;;;4.90;;
19189;SDS011;9727;50.200;19.038;2023-10-09T00:15:53;12.03;;;5.10;;
19189;SDS011;9727;50.200;19.038;2023-10-09T00:18:25;11.77;;;5.80;;
19189;SDS011;9727;50.200;19.038;2023-10-09T00:20:56;13.50;;;6.07;;
19189;SDS011;9727;50.200;19.038;2023-10-09T00:23:27;17.87;;;7.23;;
19189;SDS011;9727;50.200;19.038;2023-10-09T00:25:54;21.10;;;8.27;;
19189;SDS011;9727;50.200;19.038;2023-10-09T00:28:37;15.47;;;8.30;;
19189;SDS011;9727;50.200;19.038;2023-10-09T00:31:06;16.90;;;9.23;;
19189;SDS011;9727;50.200;19.038;2023-10-09T00:33:39;25.63;;;9.73;;
19189;SDS011;9727;50.200;19.038;2023-10-09T00:36:08;17.90;;;8.93;;
19189;SDS011;9727;50.200;19.038;2023-10-09T00:38:38;18.57;;;8.73;;
19189;SDS011;9727;50.200;19.038;2023-10-09T00:41:09;18.23;;;9.23;;
19189;SDS011;9727;50.200;19.038;2023-10-09T00:43:37;17.97;;;9.67;;
19189;SDS011;9727;50.200;19.038;2023-10-09T00:46:11;19.27;;;9.97;;
19189;SDS011;9727;50.200;19.038;2023-10-09T00:48:49;21.60;;;9.20;;
19189;SDS011;9727;50.200;19.038;2023-10-09T00:51:17;20.47;;;9.87;;
19189;SDS011;9727;50.200;19.038;2023-10-09T00:53:50;19.73;;;9.73;;
19189;SDS011;9727;50.200;19.038;2023-10-09T00:56:18;19.63;;;9.53;;
19189;SDS011;9727;50.200;19.038;2023-10-09T00:58:54;20.77;;;9.80;;
19189;SDS011;9727;50.200;19.038;2023-10-09T01:01:26;22.00;;;10.73;;
19189;SDS011;9727;50.200;19.038;2023-10-09T01:04:00;23.57;;;10.93;;
19189;SDS011;9727;50.200;19.038;2023-10-09T01:06:33;24.83;;;11.53;;
19189;SDS011;9727;50.200;19.038;2023-10-09T01:09:08;24.97;;;11.60;;
19189;SDS011;9727;50.200;19.038;2023-10-09T01:11:39;23.47;;;11.23;;
19189;SDS011;9727;50.200;19.038;2023-10-09T01:14:16;23.83;;;12.00;;
19189;SDS011;9727;50.200;19.038;2023-10-09T01:16:46;22.43;;;11.43;;
19189;SDS011;9727;50.200;19.038;2023-10-09T01:19:14;22.33;;;10.87;;
19189;SDS011;9727;50.200;19.038;2023-10-09T01:21:50;22.43;;;10.87;;
19189;SDS011;9727;50.200;19.038;2023-10-09T01:24:21;23.87;;;11.67;;
19189;SDS011;9727;50.200;19.038;2023-10-09T01:26:51;25.30;;;12.00;;
19189;SDS011;9727;50.200;19.038;2023-10-09T01:29:20;24.20;;;11.03;;
19189;SDS011;9727;50.200;19.038;2023-10-09T01:31:47;24.13;;;11.07;;
19189;SDS011;9727;50.200;19.038;2023-10-09T01:34:20;21.10;;;11.17;;
19189;SDS011;9727;50.200;19.038;2023-10-09T01:36:49;26.37;;;11.17;;
19189;SDS011;9727;50.200;19.038;2023-10-09T01:39:23;26.70;;;12.37;;
19189;SDS011;9727;50.200;19.038;2023-10-09T01:41:51;24.93;;;12.73;;
19189;SDS011;9727;50.200;19.038;2023-10-09T01:44:24;23.93;;;11.70;;
19189;SDS011;9727;50.200;19.038;2023-10-09T01:46:51;24.67;;;11.83;;
19189;SDS011;9727;50.200;19.038;2023-10-09T01:49:20;20.63;;;10.83;;
19189;SDS011;9727;50.200;19.038;2023-10-09T01:51:55;19.00;;;10.27;;
19189;SDS011;9727;50.200;19.038;2023-10-09T01:54:26;20.80;;;11.07;;
19189;SDS011;9727;50.200;19.038;2023-10-09T01:57:06;25.10;;;11.13;;
19189;SDS011;9727;50.200;19.038;2023-10-09T01:59:37;23.93;;;11.67;;
19189;SDS011;9727;50.200;19.038;2023-10-09T02:02:10;22.73;;;11.03;;
19189;SDS011;9727;50.200;19.038;2023-10-09T02:04:50;22.17;;;11.10;;
19189;SDS011;9727;50.200;19.038;2023-10-09T02:07:29;24.97;;;11.23;;
19189;SDS011;9727;50.200;19.038;2023-10-09T02:10:07;19.40;;;10.37;;
19189;SDS011;9727;50.200;19.038;2023-10-09T02:12:46;22.37;;;11.43;;
19189;SDS011;9727;50.200;19.038;2023-10-09T02:15:15;23.33;;;10.87;;
19189;SDS011;9727;50.200;19.038;2023-10-09T02:18:02;22.20;;;11.13;;
19189;SDS011;9727;50.200;19.038;2023-10-09T02:20:41;20.67;;;10.77;;
19189;SDS011;9727;50.200;19.038;2023-10-09T02:23:10;21.73;;;10.70;;
19189;SDS011;9727;50.200;19.038;2023-10-09T02:25:39;21.37;;;10.83;;
19189;SDS011;9727;50.200;19.038;2023-10-09T02:28:08;21.13;;;10.60;;
19189;SDS011;9727;50.200;19.038;2023-10-09T02:30:42;26.33;;;10.43;;
19189;SDS011;9727;50.200;19.038;2023-10-09T02:33:12;19.87;;;9.50;;
19189;SDS011;9727;50.200;19.038;2023-10-09T02:35:44;19.13;;;9.83;;
19189;SDS011;9727;50.200;19.038;2023-10-09T02:38:16;17.90;;;8.50;;
19189;SDS011;9727;50.200;19.038;2023-10-09T02:40:44;19.17;;;9.77;;
19189;SDS011;9727;50.200;19.038;2023-10-09T02:43:24;17.87;;;9.33;;
19189;SDS011;9727;50.200;19.038;2023-10-09T02:45:52;19.70;;;9.77;;
19189;SDS011;9727;50.200;19.038;2023-10-09T02:48:21;15.63;;;8.23;;
19189;SDS011;9727;50.200;19.038;2023-10-09T02:50:50;18.33;;;9.17;;
19189;SDS011;9727;50.200;19.038;2023-10-09T02:53:17;17.20;;;9.13;;
19189;SDS011;9727;50.200;19.038;2023-10-09T02:55:46;18.73;;;9.63;;
19189;SDS011;9727;50.200;19.038;2023-10-09T02:58:36;21.40;;;9.50;;
19189;SDS011;9727;50.200;19.038;2023-10-09T03:01:08;18.63;;;9.47;;
19189;SDS011;9727;50.200;19.038;2023-10-09T03:03:38;22.30;;;9.50;;
19189;SDS011;9727;50.200;19.038;2023-10-09T03:06:06;17.80;;;8.70;;
19189;SDS011;9727;50.200;19.038;2023-10-09T03:08:39;19.30;;;9.67;;
19189;SDS011;9727;50.200;19.038;2023-10-09T03:11:08;19.73;;;9.40;;
19189;SDS011;9727;50.200;19.038;2023-10-09T03:13:40;17.87;;;9.97;;
19189;SDS011;9727;50.200;19.038;2023-10-09T03:16:10;20.17;;;9.70;;
19189;SDS011;9727;50.200;19.038;2023-10-09T03:18:39;17.37;;;9.40;;
19189;SDS011;9727;50.200;19.038;2023-10-09T03:21:07;19.07;;;9.17;;
19189;SDS011;9727;50.200;19.038;2023-10-09T03:23:33;17.60;;;10.23;;
19189;SDS011;9727;50.200;19.038;2023-10-09T03:26:01;18.40;;;9.33;;
19189;SDS011;9727;50.200;19.038;2023-10-09T03:28:30;16.47;;;9.30;;
19189;SDS011;9727;50.200;19.038;2023-10-09T03:30:57;16.53;;;8.53;;
19189;SDS011;9727;50.200;19.038;2023-10-09T03:33:27;21.30;;;9.07;;
19189;SDS011;9727;50.200;19.038;2023-10-09T03:35:58;17.10;;;8.40;;
19189;SDS011;9727;50.200;19.038;2023-10-09T03:38:25;16.20;;;8.03;;
19189;SDS011;9727;50.200;19.038;2023-10-09T03:40:54;17.07;;;8.70;;
19189;SDS011;9727;50.200;19.038;2023-10-09T03:43:21;16.10;;;8.17;;
19189;SDS011;9727;50.200;19.038;2023-10-09T03:45:49;15.63;;;7.93;;
19189;SDS011;9727;50.200;19.038;2023-10-09T03:48:21;18.40;;;8.53;;
19189;SDS011;9727;50.200;19.038;2023-10-09T03:50:51;15.07;;;7.80;;
19189;SDS011;9727;50.200;19.038;2023-10-09T03:53:33;13.63;;;7.43;;
19189;SDS011;9727;50.200;19.038;2023-10-09T03:56:01;21.83;;;7.67;;
19189;SDS011;9727;50.200;19.038;2023-10-09T03:58:30;14.17;;;7.13;;
19189;SDS011;9727;50.200;19.038;2023-10-09T04:01:01;12.80;;;6.80;;
19189;SDS011;9727;50.200;19.038;2023-10-09T04:03:37;15.43;;;7.63;;
19189;SDS011;9727;50.200;19.038;2023-10-09T04:06:04;16.67;;;7.37;;
19189;SDS011;9727;50.200;19.038;2023-10-09T04:08:33;13.87;;;7.53;;
19189;SDS011;9727;50.200;19.038;2023-10-09T04:11:05;12.50;;;7.30;;
19189;SDS011;9727;50.200;19.038;2023-10-09T04:13:41;16.50;;;7.80;;
19189;SDS011;9727;50.200;19.038;2023-10-09T04:16:12;16.73;;;8.13;;
19189;SDS011;9727;50.200;19.038;2023-10-09T04:18:52;13.43;;;7.53;;
19189;SDS011;9727;50.200;19.038;2023-10-09T04:21:21;17.57;;;8.10;;
19189;SDS011;9727;50.200;19.038;2023-10-09T04:24:02;15.07;;;7.47;;
19189;SDS011;9727;50.200;19.038;2023-10-09T04:26:46;13.73;;;7.03;;
19189;SDS011;9727;50.200;19.038;2023-10-09T04:29:13;13.07;;;6.90;;
19189;SDS011;9727;50.200;19.038;2023-10-09T04:31:46;13.97;;;7.00;;
19189;SDS011;9727;50.200;19.038;2023-10-09T04:34:16;13.50;;;6.97;;
19189;SDS011;9727;50.200;19.038;2023-10-09T04:37:00;13.67;;;7.50;;
19189;SDS011;9727;50.200;19.038;2023-10-09T04:39:44;14.07;;;7.13;;
19189;SDS011;9727;50.200;19.038;2023-10-09T04:42:13;14.93;;;7.30;;
19189;SDS011;9727;50.200;19.038;2023-10-09T04:44:51;13.67;;;6.97;;
19189;SDS011;9727;50.200;19.038;2023-10-09T04:47:46;14.20;;;6.83;;
19189;SDS011;9727;50.200;19.038;2023-10-09T04:50:32;12.50;;;6.60;;
19189;SDS011;9727;50.200;19.038;2023-10-09T04:53:29;16.03;;;6.77;;
19189;SDS011;9727;50.200;19.038;2023-10-09T04:56:04;15.77;;;6.57;;
19189;SDS011;9727;50.200;19.038;2023-10-09T04:58:40;14.20;;;6.50;;
19189;SDS011;9727;50.200;19.038;2023-10-09T05:01:09;12.93;;;6.13;;
19189;SDS011;9727;50.200;19.038;2023-10-09T05:03:42;16.87;;;5.93;;
19189;SDS011;9727;50.200;19.038;2023-10-09T05:06:21;13.50;;;6.37;;
19189;SDS011;9727;50.200;19.038;2023-10-09T05:09:10;11.43;;;5.70;;
19189;SDS011;9727;50.200;19.038;2023-10-09T05:11:40;13.90;;;6.70;;
19189;SDS011;9727;50.200;19.038;2023-10-09T05:14:24;12.83;;;6.13;;
19189;SDS011;9727;50.200;19.038;2023-10-09T05:17:03;12.67;;;6.07;;
19189;SDS011;9727;50.200;19.038;2023-10-09T05:19:36;12.27;;;5.67;;
19189;SDS011;9727;50.200;19.038;2023-10-09T05:22:20;11.13;;;6.30;;
19189;SDS011;9727;50.200;19.038;2023-10-09T05:24:55;12.43;;;6.67;;
19189;SDS011;9727;50.200;19.038;2023-10-09T05:27:22;15.70;;;7.03;;
19189;SDS011;9727;50.200;19.038;2023-10-09T05:30:09;12.27;;;6.60;;
19189;SDS011;9727;50.200;19.038;2023-10-09T05:32:50;12.00;;;6.93;;
19189;SDS011;9727;50.200;19.038;2023-10-09T05:35:24;14.13;;;6.70;;
19189;SDS011;9727;50.200;19.038;2023-10-09T05:38:06;19.17;;;6.70;;
19189;SDS011;9727;50.200;19.038;2023-10-09T05:40:40;11.80;;;6.57;;
19189;SDS011;9727;50.200;19.038;2023-10-09T05:43:09;13.80;;;6.03;;
19189;SDS011;9727;50.200;19.038;2023-10-09T05:45:54;11.43;;;6.43;;
19189;SDS011;9727;50.200;19.038;2023-10-09T05:48:42;11.73;;;6.03;;
19189;SDS011;9727;50.200;19.038;2023-10-09T05:51:38;13.00;;;5.77;;
19189;SDS011;9727;50.200;19.038;2023-10-09T05:54:08;10.63;;;5.13;;
19189;SDS011;9727;50.200;19.038;2023-10-09T05:56:49;13.23;;;6.43;;
19189;SDS011;9727;50.200;19.038;2023-10-09T05:59:39;14.03;;;6.27;;
19189;SDS011;9727;50.200;19.038;2023-10-09T06:02:37;11.60;;;6.03;;
19189;SDS011;9727;50.200;19.038;2023-10-09T06:05:21;11.87;;;6.50;;
19189;SDS011;9727;50.200;19.038;2023-10-09T06:08:04;10.00;;;5.90;;
19189;SDS011;9727;50.200;19.038;2023-10-09T06:10:32;14.73;;;7.00;;
19189;SDS011;9727;50.200;19.038;2023-10-09T06:13:05;14.60;;;7.80;;
19189;SDS011;9727;50.200;19.038;2023-10-09T06:15:36;13.77;;;7.57;;
19189;SDS011;9727;50.200;19.038;2023-10-09T06:18:16;14.97;;;8.70;;
19189;SDS011;9727;50.200;19.038;2023-10-09T06:20:57;12.83;;;7.53;;
19189;SDS011;9727;50.200;19.038;2023-10-09T06:23:39;13.67;;;6.73;;
19189;SDS011;9727;50.200;19.038;2023-10-09T06:26:40;13.30;;;6.60;;
19189;SDS011;9727;50.200;19.038;2023-10-09T06:29:16;12.00;;;6.93;;
19189;SDS011;9727;50.200;19.038;2023-10-09T06:31:59;14.37;;;7.17;;
19189;SDS011;9727;50.200;19.038;2023-10-09T06:34:42;14.10;;;8.93;;
19189;SDS011;9727;50.200;19.038;2023-10-09T06:37:11;17.33;;;11.63;;
19189;SDS011;9727;50.200;19.038;2023-10-09T06:40:02;24.80;;;14.80;;
19189;SDS011;9727;50.200;19.038;2023-10-09T06:43:08;22.20;;;11.80;;
19189;SDS011;9727;50.200;19.038;2023-10-09T06:45:37;21.67;;;11.10;;
19189;SDS011;9727;50.200;19.038;2023-10-09T06:48:20;16.47;;;8.73;;
19189;SDS011;9727;50.200;19.038;2023-10-09T06:51:05;12.30;;;7.27;;
19189;SDS011;9727;50.200;19.038;2023-10-09T06:53:38;10.13;;;6.60;;
19189;SDS011;9727;50.200;19.038;2023-10-09T06:56:23;12.13;;;6.80;;
19189;SDS011;9727;50.200;19.038;2023-10-09T06:58:55;12.07;;;6.77;;
19189;SDS011;9727;50.200;19.038;2023-10-09T07:01:24;15.87;;;7.73;;
19189;SDS011;9727;50.200;19.038;2023-10-09T07:03:56;15.30;;;7.70;;
19189;SDS011;9727;50.200;19.038;2023-10-09T07:06:25;11.70;;;7.80;;
19189;SDS011;9727;50.200;19.038;2023-10-09T07:09:09;15.27;;;8.00;;
19189;SDS011;9727;50.200;19.038;2023-10-09T07:11:46;15.20;;;9.27;;
19189;SDS011;9727;50.200;19.038;2023-10-09T07:14:37;12.83;;;8.60;;
19189;SDS011;9727;50.200;19.038;2023-10-09T07:17:21;10.23;;;7.13;;
19189;SDS011;9727;50.200;19.038;2023-10-09T07:19:52;13.40;;;6.83;;
19189;SDS011;9727;50.200;19.038;2023-10-09T07:22:41;10.83;;;5.77;;
19189;SDS011;9727;50.200;19.038;2023-10-09T07:25:23;10.37;;;5.93;;
19189;SDS011;9727;50.200;19.038;2023-10-09T07:28:13;12.03;;;6.73;;
19189;SDS011;9727;50.200;19.038;2023-10-09T07:30:55;12.00;;;5.77;;
19189;SDS011;9727;50.200;19.038;2023-10-09T07:33:25;12.00;;;6.20;;
19189;SDS011;9727;50.200;19.038;2023-10-09T07:36:17;11.53;;;6.00;;
19189;SDS011;9727;50.200;19.038;2023-10-09T07:38:55;11.87;;;6.00;;
19189;SDS011;9727;50.200;19.038;2023-10-09T07:41:21;9.50;;;5.40;;
19189;SDS011;9727;50.200;19.038;2023-10-09T07:44:11;10.50;;;6.23;;
19189;SDS011;9727;50.200;19.038;2023-10-09T07:47:01;10.23;;;6.13;;
19189;SDS011;9727;50.200;19.038;2023-10-09T07:49:45;14.43;;;6.50;;
19189;SDS011;9727;50.200;19.038;2023-10-09T07:52:22;10.07;;;6.10;;
19189;SDS011;9727;50.200;19.038;2023-10-09T07:54:49;11.67;;;6.23;;
19189;SDS011;9727;50.200;19.038;2023-10-09T07:57:27;13.20;;;6.53;;
19189;SDS011;9727;50.200;19.038;2023-10-09T08:00:08;11.53;;;5.97;;
19189;SDS011;9727;50.200;19.038;2023-10-09T08:02:59;8.97;;;5.80;;
19189;SDS011;9727;50.200;19.038;2023-10-09T08:05:25;11.37;;;5.97;;
19189;SDS011;9727;50.200;19.038;2023-10-09T08:07:58;11.33;;;6.37;;
19189;SDS011;9727;50.200;19.038;2023-10-09T08:10:44;9.87;;;5.73;;
19189;SDS011;9727;50.200;19.038;2023-10-09T08:13:38;11.63;;;6.20;;
19189;SDS011;9727;50.200;19.038;2023-10-09T08:16:27;10.43;;;6.63;;
19189;SDS011;9727;50.200;19.038;2023-10-09T08:19:02;12.37;;;6.93;;
19189;SDS011;9727;50.200;19.038;2023-10-09T08:21:46;10.00;;;5.40;;
19189;SDS011;9727;50.200;19.038;2023-10-09T08:24:33;7.67;;;5.40;;
19189;SDS011;9727;50.200;19.038;2023-10-09T08:27:06;8.23;;;4.93;;
19189;SDS011;9727;50.200;19.038;2023-10-09T08:29:59;12.00;;;6.83;;
19189;SDS011;9727;50.200;19.038;2023-10-09T08:32:56;8.93;;;5.97;;
19189;SDS011;9727;50.200;19.038;2023-10-09T08:35:31;8.33;;;5.93;;
19189;SDS011;9727;50.200;19.038;2023-10-09T08:37:59;11.03;;;5.80;;
19189;SDS011;9727;50.200;19.038;2023-10-09T08:40:33;9.37;;;6.30;;
19189;SDS011;9727;50.200;19.038;2023-10-09T08:43:08;10.57;;;7.10;;
19189;SDS011;9727;50.200;19.038;2023-10-09T08:45:37;11.17;;;6.70;;
19189;SDS011;9727;50.200;19.038;2023-10-09T08:48:07;10.37;;;6.63;;
19189;SDS011;9727;50.200;19.038;2023-10-09T08:50:40;8.73;;;5.77;;
19189;SDS011;9727;50.200;19.038;2023-10-09T08:53:07;8.73;;;5.90;;
19189;SDS011;9727;50.200;19.038;2023-10-09T08:55:35;10.57;;;6.10;;
19189;SDS011;9727;50.200;19.038;2023-10-09T08:58:03;12.37;;;7.57;;
19189;SDS011;9727;50.200;19.038;2023-10-09T09:00:45;9.33;;;5.80;;
19189;SDS011;9727;50.200;19.038;2023-10-09T09:03:14;11.40;;;5.73;;
19189;SDS011;9727;50.200;19.038;2023-10-09T09:05:44;7.83;;;5.80;;
19189;SDS011;9727;50.200;19.038;2023-10-09T09:08:20;22.47;;;6.97;;
19189;SDS011;9727;50.200;19.038;2023-10-09T09:10:50;12.27;;;7.27;;
19189;SDS011;9727;50.200;19.038;2023-10-09T09:13:21;12.50;;;7.07;;
19189;SDS011;9727;50.200;19.038;2023-10-09T09:15:48;12.50;;;7.33;;
19189;SDS011;9727;50.200;19.038;2023-10-09T09:18:20;15.83;;;9.33;;
19189;SDS011;9727;50.200;19.038;2023-10-09T09:20:48;13.63;;;8.80;;
19189;SDS011;9727;50.200;19.038;2023-10-09T09:23:28;16.33;;;9.97;;
19189;SDS011;9727;50.200;19.038;2023-10-09T09:25:55;17.90;;;9.70;;
19189;SDS011;9727;50.200;19.038;2023-10-09T09:28:26;15.00;;;9.10;;
19189;SDS011;9727;50.200;19.038;2023-10-09T09:31:06;23.37;;;13.00;;
19189;SDS011;9727;50.200;19.038;2023-10-09T09:33:39;30.47;;;15.40;;
19189;SDS011;9727;50.200;19.038;2023-10-09T09:36:08;13.80;;;7.83;;
19189;SDS011;9727;50.200;19.038;2023-10-09T09:38:36;17.03;;;9.87;;
19189;SDS011;9727;50.200;19.038;2023-10-09T09:41:13;19.07;;;10.17;;
19189;SDS011;9727;50.200;19.038;2023-10-09T09:43:49;14.60;;;8.57;;
19189;SDS011;9727;50.200;19.038;2023-10-09T09:46:17;17.97;;;9.63;;
19189;SDS011;9727;50.200;19.038;2023-10-09T09:48:51;14.20;;;7.80;;
19189;SDS011;9727;50.200;19.038;2023-10-09T09:51:22;13.60;;;9.37;;
19189;SDS011;9727;50.200;19.038;2023-10-09T09:53:49;12.57;;;8.33;;
19189;SDS011;9727;50.200;19.038;2023-10-09T09:56:21;12.60;;;7.90;;
19189;SDS011;9727;50.200;19.038;2023-10-09T09:58:51;8.67;;;5.73;;
19189;SDS011;9727;50.200;19.038;2023-10-09T10:01:22;7.50;;;5.07;;
19189;SDS011;9727;50.200;19.038;2023-10-09T10:03:54;14.40;;;9.37;;
19189;SDS011;9727;50.200;19.038;2023-10-09T10:06:26;11.90;;;8.57;;
19189;SDS011;9727;50.200;19.038;2023-10-09T10:08:57;12.10;;;8.00;;
19189;SDS011;9727;50.200;19.038;2023-10-09T10:14:25;23.77;;;12.53;;
19189;SDS011;9727;50.200;19.038;2023-10-09T10:17:12;13.87;;;8.30;;
19189;SDS011;9727;50.200;19.038;2023-10-09T10:22:52;8.53;;;4.90;;
19189;SDS011;9727;50.200;19.038;2023-10-09T10:25:42;10.97;;;7.57;;
19189;SDS011;9727;50.200;19.038;2023-10-09T10:28:19;11.30;;;7.23;;
19189;SDS011;9727;50.200;19.038;2023-10-09T10:31:02;11.73;;;8.03;;
19189;SDS011;9727;50.200;19.038;2023-10-09T10:36:14;9.23;;;6.43;;
19189;SDS011;9727;50.200;19.038;2023-10-09T10:38:49;9.23;;;5.33;;
19189;SDS011;9727;50.200;19.038;2023-10-09T10:41:31;7.23;;;5.73;;
19189;SDS011;9727;50.200;19.038;2023-10-09T10:44:02;9.03;;;5.03;;
19189;SDS011;9727;50.200;19.038;2023-10-09T10:46:49;6.03;;;4.43;;
19189;SDS011;9727;50.200;19.038;2023-10-09T10:49:22;5.60;;;3.93;;
19189;SDS011;9727;50.200;19.038;2023-10-09T10:51:51;5.83;;;3.77;;
19189;SDS011;9727;50.200;19.038;2023-10-09T10:54:27;4.70;;;3.23;;
19189;SDS011;9727;50.200;19.038;2023-10-09T10:57:21;5.33;;;3.30;;
19189;SDS011;9727;50.200;19.038;2023-10-09T10:59:56;6.90;;;4.30;;
19189;SDS011;9727;50.200;19.038;2023-10-09T11:02:39;6.60;;;3.87;;
19189;SDS011;9727;50.200;19.038;2023-10-09T11:05:06;8.43;;;4.03;;
19189;SDS011;9727;50.200;19.038;2023-10-09T11:07:57;5.10;;;3.80;;
19189;SDS011;9727;50.200;19.038;2023-10-09T11:10:27;6.07;;;3.23;;
19189;SDS011;9727;50.200;19.038;2023-10-09T11:12:57;3.17;;;2.60;;
19189;SDS011;9727;50.200;19.038;2023-10-09T11:15:52;4.93;;;2.50;;
19189;SDS011;9727;50.200;19.038;2023-10-09T11:18:40;3.17;;;2.47;;
19189;SDS011;9727;50.200;19.038;2023-10-09T11:21:12;3.67;;;2.57;;
19189;SDS011;9727;50.200;19.038;2023-10-09T11:24:01;4.53;;;3.00;;
19189;SDS011;9727;50.200;19.038;2023-10-09T11:26:43;4.17;;;2.67;;
19189;SDS011;9727;50.200;19.038;2023-10-09T11:29:22;4.77;;;3.20;;
19189;SDS011;9727;50.200;19.038;2023-10-09T11:32:17;5.07;;;3.67;;
19189;SDS011;9727;50.200;19.038;2023-10-09T11:34:47;5.60;;;4.40;;
19189;SDS011;9727;50.200;19.038;2023-10-09T11:37:17;9.07;;;5.20;;
19189;SDS011;9727;50.200;19.038;2023-10-09T11:40:06;6.30;;;4.67;;
19189;SDS011;9727;50.200;19.038;2023-10-09T11:42:49;9.13;;;4.17;;
19189;SDS011;9727;50.200;19.038;2023-10-09T11:45:22;6.13;;;3.63;;
19189;SDS011;9727;50.200;19.038;2023-10-09T11:47:50;5.47;;;3.13;;
19189;SDS011;9727;50.200;19.038;2023-10-09T11:50:38;6.10;;;3.97;;
19189;SDS011;9727;50.200;19.038;2023-10-09T11:53:08;4.27;;;3.00;;
19189;SDS011;9727;50.200;19.038;2023-10-09T11:55:44;3.77;;;2.70;;
19189;SDS011;9727;50.200;19.038;2023-10-09T11:58:16;5.23;;;3.50;;
19189;SDS011;9727;50.200;19.038;2023-10-09T12:00:49;7.10;;;4.93;;
19189;SDS011;9727;50.200;19.038;2023-10-09T12:03:21;7.63;;;4.60;;
19189;SDS011;9727;50.200;19.038;2023-10-09T12:05:53;9.13;;;5.67;;
19189;SDS011;9727;50.200;19.038;2023-10-09T12:08:21;11.37;;;6.53;;
19189;SDS011;9727;50.200;19.038;2023-10-09T12:10:52;7.77;;;4.80;;
19189;SDS011;9727;50.200;19.038;2023-10-09T12:13:21;9.70;;;6.17;;
19189;SDS011;9727;50.200;19.038;2023-10-09T12:15:49;10.23;;;5.47;;
19189;SDS011;9727;50.200;19.038;2023-10-09T12:18:23;6.07;;;4.03;;
19189;SDS011;9727;50.200;19.038;2023-10-09T12:20:50;6.20;;;4.40;;
19189;SDS011;9727;50.200;19.038;2023-10-09T12:23:27;6.13;;;4.50;;
19189;SDS011;9727;50.200;19.038;2023-10-09T12:25:55;7.03;;;5.77;;
19189;SDS011;9727;50.200;19.038;2023-10-09T12:28:25;10.03;;;5.40;;
19189;SDS011;9727;50.200;19.038;2023-10-09T12:30:53;6.50;;;5.13;;
19189;SDS011;9727;50.200;19.038;2023-10-09T12:33:20;8.53;;;5.77;;
19189;SDS011;9727;50.200;19.038;2023-10-09T12:35:53;8.60;;;5.60;;
19189;SDS011;9727;50.200;19.038;2023-10-09T12:38:25;8.77;;;4.57;;
19189;SDS011;9727;50.200;19.038;2023-10-09T12:41:02;6.43;;;5.37;;
19189;SDS011;9727;50.200;19.038;2023-10-09T12:43:37;8.70;;;5.93;;
19189;SDS011;9727;50.200;19.038;2023-10-09T12:46:05;8.07;;;6.27;;
19189;SDS011;9727;50.200;19.038;2023-10-09T12:48:32;7.73;;;6.60;;
19189;SDS011;9727;50.200;19.038;2023-10-09T12:51:02;14.50;;;9.17;;
19189;SDS011;9727;50.200;19.038;2023-10-09T12:53:31;19.07;;;8.67;;
19189;SDS011;9727;50.200;19.038;2023-10-09T12:56:07;20.03;;;9.47;;
19189;SDS011;9727;50.200;19.038;2023-10-09T12:58:40;12.50;;;6.87;;
19189;SDS011;9727;50.200;19.038;2023-10-09T13:01:17;8.43;;;7.03;;
19189;SDS011;9727;50.200;19.038;2023-10-09T13:03:46;9.37;;;7.63;;
19189;SDS011;9727;50.200;19.038;2023-10-09T13:06:14;9.87;;;7.20;;
19189;SDS011;9727;50.200;19.038;2023-10-09T13:08:49;9.23;;;6.10;;
19189;SDS011;9727;50.200;19.038;2023-10-09T13:11:17;8.17;;;5.80;;
19189;SDS011;9727;50.200;19.038;2023-10-09T13:13:48;8.00;;;5.63;;
19189;SDS011;9727;50.200;19.038;2023-10-09T13:16:16;6.87;;;5.40;;
19189;SDS011;9727;50.200;19.038;2023-10-09T13:18:48;8.03;;;5.77;;
19189;SDS011;9727;50.200;19.038;2023-10-09T13:21:16;12.93;;;8.77;;
19189;SDS011;9727;50.200;19.038;2023-10-09T13:23:46;15.90;;;10.00;;
19189;SDS011;9727;50.200;19.038;2023-10-09T13:26:15;12.33;;;8.37;;
19189;SDS011;9727;50.200;19.038;2023-10-09T13:28:51;10.97;;;7.83;;
19189;SDS011;9727;50.200;19.038;2023-10-09T13:31:22;11.17;;;7.10;;
19189;SDS011;9727;50.200;19.038;2023-10-09T13:33:51;10.33;;;8.37;;
19189;SDS011;9727;50.200;19.038;2023-10-09T13:36:22;11.93;;;8.07;;
19189;SDS011;9727;50.200;19.038;2023-10-09T13:38:56;11.93;;;8.73;;
19189;SDS011;9727;50.200;19.038;2023-10-09T13:41:24;12.07;;;9.33;;
19189;SDS011;9727;50.200;19.038;2023-10-09T13:43:55;11.07;;;8.47;;
19189;SDS011;9727;50.200;19.038;2023-10-09T13:46:25;10.67;;;7.47;;
19189;SDS011;9727;50.200;19.038;2023-10-09T13:48:52;10.30;;;7.77;;
19189;SDS011;9727;50.200;19.038;2023-10-09T13:51:19;13.43;;;7.30;;
19189;SDS011;9727;50.200;19.038;2023-10-09T13:53:49;11.13;;;7.70;;
19189;SDS011;9727;50.200;19.038;2023-10-09T13:56:16;10.13;;;8.27;;
19189;SDS011;9727;50.200;19.038;2023-10-09T13:58:47;11.87;;;7.83;;
19189;SDS011;9727;50.200;19.038;2023-10-09T14:01:15;9.00;;;6.97;;
19189;SDS011;9727;50.200;19.038;2023-10-09T14:03:55;9.30;;;7.90;;
19189;SDS011;9727;50.200;19.038;2023-10-09T14:06:23;11.33;;;8.50;;
19189;SDS011;9727;50.200;19.038;2023-10-09T14:08:57;12.27;;;9.20;;
19189;SDS011;9727;50.200;19.038;2023-10-09T14:11:24;13.13;;;9.50;;
19189;SDS011;9727;50.200;19.038;2023-10-09T14:13:50;12.10;;;8.43;;
19189;SDS011;9727;50.200;19.038;2023-10-09T14:16:21;12.73;;;8.33;;
19189;SDS011;9727;50.200;19.038;2023-10-09T14:18:52;10.97;;;7.80;;
19189;SDS011;9727;50.200;19.038;2023-10-09T14:21:22;12.07;;;8.70;;
19189;SDS011;9727;50.200;19.038;2023-10-09T14:23:51;13.00;;;9.47;;
19189;SDS011;9727;50.200;19.038;2023-10-09T14:26:20;11.53;;;8.40;;
19189;SDS011;9727;50.200;19.038;2023-10-09T14:28:48;12.93;;;9.23;;
19189;SDS011;9727;50.200;19.038;2023-10-09T14:31:21;11.07;;;8.87;;
19189;SDS011;9727;50.200;19.038;2023-10-09T14:33:52;12.57;;;9.23;;
19189;SDS011;9727;50.200;19.038;2023-10-09T14:36:22;16.63;;;11.97;;
19189;SDS011;9727;50.200;19.038;2023-10-09T14:38:50;16.10;;;12.07;;
19189;SDS011;9727;50.200;19.038;2023-10-09T14:41:22;14.37;;;11.23;;
19189;SDS011;9727;50.200;19.038;2023-10-09T14:43:50;13.73;;;11.40;;
19189;SDS011;9727;50.200;19.038;2023-10-09T14:46:21;16.40;;;11.33;;
19189;SDS011;9727;50.200;19.038;2023-10-09T14:48:52;18.30;;;12.80;;
19189;SDS011;9727;50.200;19.038;2023-10-09T14:51:22;21.40;;;14.27;;
19189;SDS011;9727;50.200;19.038;2023-10-09T14:53:56;17.83;;;12.73;;
19189;SDS011;9727;50.200;19.038;2023-10-09T14:56:24;17.73;;;12.47;;
19189;SDS011;9727;50.200;19.038;2023-10-09T14:58:55;19.00;;;13.23;;
19189;SDS011;9727;50.200;19.038;2023-10-09T15:01:25;20.30;;;13.43;;
19189;SDS011;9727;50.200;19.038;2023-10-09T15:03:57;24.73;;;17.50;;
19189;SDS011;9727;50.200;19.038;2023-10-09T15:06:25;29.97;;;21.10;;
19189;SDS011;9727;50.200;19.038;2023-10-09T15:09:02;33.10;;;21.70;;
19189;SDS011;9727;50.200;19.038;2023-10-09T15:11:37;25.17;;;17.37;;
19189;SDS011;9727;50.200;19.038;2023-10-09T15:14:04;22.73;;;15.73;;
19189;SDS011;9727;50.200;19.038;2023-10-09T15:16:33;27.20;;;20.27;;
19189;SDS011;9727;50.200;19.038;2023-10-09T15:19:04;22.90;;;15.37;;
19189;SDS011;9727;50.200;19.038;2023-10-09T15:21:31;32.00;;;21.50;;
19189;SDS011;9727;50.200;19.038;2023-10-09T15:23:59;26.40;;;18.17;;
19189;SDS011;9727;50.200;19.038;2023-10-09T15:26:30;23.43;;;15.27;;